Time;durP1;ratioP1;P1;durP2;ratioP2;P2;SDS_P1;SDS_P2;PMS_P1;PMS_P2;Temp;Humidity;BMP_temperature;BMP_pressure;BME280_temperature;BME280_humidity;BME280_pressure;Samples;Min_cycle;Max_cycle;Signal;HPM_P1;HPM_P2
2021/07/18 00:01:52;;;;;;;1.53;0.90;;;;;;;15.69;100.00;101541.94;5033305;28;1089299;-71
2021/07/18 00:04:17;;;;;;;1.20;1.10;;;;;;;15.67;100.00;101507.56;5072474;28;20420;-72
2021/07/18 00:06:43;;;;;;;1.50;1.23;;;;;;;15.62;100.00;101449.84;5072198;28;20206;-71
2021/07/18 00:09:08;;;;;;;1.20;1.10;;;;;;;15.62;100.00;101408.53;5072185;28;20199;-71
2021/07/18 00:11:34;;;;;;;1.40;1.03;;;;;;;15.58;100.00;101416.59;5071926;28;20206;-71
2021/07/18 00:13:59;;;;;;;1.10;1.00;;;;;;;15.55;100.00;101372.38;5070669;28;20181;-72
2021/07/18 00:16:25;;;;;;;1.60;1.50;;;;;;;15.52;100.00;101908.19;5070717;28;20179;-71
2021/07/18 00:18:50;;;;;;;2.87;1.33;;;;;;;15.51;100.00;101723.97;5070624;28;20182;-72
2021/07/18 00:21:16;;;;;;;2.77;1.30;;;;;;;15.49;100.00;101638.88;5071743;28;20178;-72
2021/07/18 00:23:42;;;;;;;1.93;1.00;;;;;;;15.45;100.00;101908.59;5071910;28;20185;-72
2021/07/18 00:26:07;;;;;;;1.50;1.20;;;;;;;15.44;100.00;101873.94;5071816;28;20182;-71
2021/07/18 00:28:33;;;;;;;4.50;1.50;;;;;;;15.42;100.00;101799.06;5071777;28;20248;-72
2021/07/18 00:30:58;;;;;;;5.43;1.27;;;;;;;15.44;100.00;101760.19;5071604;28;20174;-71
2021/07/18 00:33:24;;;;;;;1.40;1.30;;;;;;;15.44;100.00;101725.19;5070478;28;20260;-71
2021/07/18 00:35:49;;;;;;;1.20;0.97;;;;;;;15.45;100.00;101726.81;5071804;28;20175;-71
2021/07/18 00:38:15;;;;;;;4.80;2.13;;;;;;;15.44;100.00;101755.50;5071679;28;20186;-71
2021/07/18 00:40:40;;;;;;;3.70;1.60;;;;;;;15.42;100.00;101724.69;5071369;28;20488;-72
2021/07/18 00:43:06;;;;;;;1.43;1.33;;;;;;;15.42;100.00;101674.31;5071504;28;20419;-71
2021/07/18 00:45:31;;;;;;;2.27;1.60;;;;;;;15.42;100.00;101697.16;5071565;28;20252;-71
2021/07/18 00:47:56;;;;;;;1.37;1.23;;;;;;;15.41;100.00;101672.69;5071473;28;20580;-71
2021/07/18 00:50:24;;;;;;;1.63;1.53;;;;;;;15.42;100.00;101756.94;5071851;28;20659;-72
2021/07/18 00:52:50;;;;;;;2.10;1.40;;;;;;;15.41;100.00;101818.66;5079562;28;20202;-72
2021/07/18 00:55:15;;;;;;;1.80;1.70;;;;;;;15.39;100.00;101769.38;5073822;28;20552;-71
2021/07/18 00:57:45;;;;;;;1.30;1.13;;;;;;;15.42;100.00;101633.00;5072269;28;20614;-72
2021/07/18 01:00:12;;;;;;;1.50;1.40;;;;;;;15.45;100.00;101786.59;5071419;28;20553;-71
2021/07/18 01:02:38;;;;;;;3.10;1.30;;;;;;;15.44;100.00;101722.44;5071197;28;20188;-71
2021/07/18 01:05:09;;;;;;;2.00;1.47;;;;;;;15.44;100.00;101631.56;5071339;28;20178;-71
2021/07/18 01:07:34;;;;;;;1.63;1.53;;;;;;;15.43;100.00;101653.91;5071371;28;20207;-72
2021/07/18 01:10:01;;;;;;;1.60;1.50;;;;;;;15.41;100.00;101590.06;5071191;28;20199;-71
2021/07/18 01:12:26;;;;;;;1.57;1.47;;;;;;;15.37;100.00;101492.69;5071044;28;20216;-71
2021/07/18 01:14:52;;;;;;;1.47;1.37;;;;;;;15.30;100.00;101449.09;5071127;28;20178;-72
2021/07/18 01:17:17;;;;;;;2.60;1.10;;;;;;;15.28;100.00;101519.38;5071039;28;20853;-72
2021/07/18 01:19:43;;;;;;;1.77;1.30;;;;;;;15.26;100.00;101481.16;5071246;28;20175;-72
2021/07/18 01:22:08;;;;;;;2.50;1.30;;;;;;;15.26;100.00;101480.34;5070844;28;20198;-71
2021/07/18 01:24:34;;;;;;;2.53;2.37;;;;;;;15.25;100.00;101457.50;5070995;28;20174;-72
2021/07/18 01:27:02;;;;;;;2.83;2.00;;;;;;;15.27;100.00;101375.38;5070989;28;20659;-72
2021/07/18 01:29:28;;;;;;;1.90;1.47;;;;;;;15.28;100.00;101530.38;5070774;28;20224;-71
2021/07/18 01:31:55;;;;;;;4.47;2.47;;;;;;;15.28;100.00;101577.19;5070893;28;20214;-71
2021/07/18 01:34:20;;;;;;;1.43;1.33;;;;;;;15.30;100.00;101509.66;5070819;28;20176;-72
2021/07/18 01:36:46;;;;;;;1.57;1.47;;;;;;;15.29;100.00;101499.78;5070722;28;20535;-72
2021/07/18 01:39:12;;;;;;;3.83;2.20;;;;;;;15.29;100.00;101603.59;5070559;28;20174;-72
2021/07/18 01:41:38;;;;;;;4.23;1.80;;;;;;;15.26;100.00;101554.66;5070282;28;20178;-72
2021/07/18 01:44:06;;;;;;;1.77;1.67;;;;;;;15.28;100.00;101421.06;5070410;28;20170;-72
2021/07/18 01:46:32;;;;;;;1.57;1.47;;;;;;;15.32;100.00;101411.03;5070543;28;20178;-72
2021/07/18 01:48:58;;;;;;;2.33;2.00;;;;;;;15.37;100.00;101578.06;5069252;28;20641;-72
2021/07/18 01:51:26;;;;;;;3.30;2.27;;;;;;;15.39;100.00;101524.28;5070171;28;20258;-72
2021/07/18 01:53:52;;;;;;;2.67;1.90;;;;;;;15.40;100.00;101333.13;5070778;28;20205;-72
2021/07/18 01:56:19;;;;;;;2.23;2.00;;;;;;;15.44;100.00;101300.25;5070794;28;20198;-72
2021/07/18 01:58:50;;;;;;;4.43;3.03;;;;;;;15.49;100.00;101272.56;5070284;28;20635;-72
2021/07/18 02:01:16;;;;;;;3.10;2.63;;;;;;;15.51;100.00;101277.75;5070217;28;20206;-72
2021/07/18 02:03:43;;;;;;;2.67;2.40;;;;;;;15.55;100.00;101264.94;5070369;28;20330;-72
2021/07/18 02:06:08;;;;;;;2.53;2.33;;;;;;;15.61;100.00;101310.50;5070191;28;20265;-72
2021/07/18 02:08:34;;;;;;;5.40;2.57;;;;;;;15.63;100.00;101375.16;5070221;28;20616;-72
2021/07/18 02:10:59;;;;;;;2.40;2.30;;;;;;;15.68;100.00;101548.56;5070046;28;20186;-72
2021/07/18 02:13:24;;;;;;;3.33;3.03;;;;;;;15.71;100.00;101789.59;5070081;28;20576;-72
2021/07/18 02:15:50;;;;;;;2.73;2.53;;;;;;;15.75;100.00;101242.25;5070395;28;20174;-73
2021/07/18 02:18:15;;;;;;;2.70;2.40;;;;;;;15.78;100.00;101313.25;5070170;28;20308;-72
2021/07/18 02:20:42;;;;;;;3.13;2.83;;;;;;;15.77;100.00;101251.84;5070034;28;20544;-72
2021/07/18 02:23:08;;;;;;;3.60;3.30;;;;;;;15.77;100.00;101242.75;5070010;28;20174;-72
2021/07/18 02:25:33;;;;;;;3.77;3.43;;;;;;;15.83;100.00;101202.06;5070235;28;20175;-72
2021/07/18 02:27:59;;;;;;;6.13;3.87;;;;;;;15.86;100.00;101184.84;5070040;28;20210;-72
2021/07/18 02:30:27;;;;;;;5.33;3.40;;;;;;;15.88;100.00;101155.03;5069949;28;20170;-72
2021/07/18 02:32:52;;;;;;;4.93;3.80;;;;;;;15.94;100.00;101148.22;5069761;28;20198;-72
2021/07/18 02:35:20;;;;;;;3.90;3.50;;;;;;;15.95;100.00;101136.84;5070014;28;20188;-72
2021/07/18 02:37:46;;;;;;;4.80;3.40;;;;;;;15.92;100.00;101120.97;5069921;28;20181;-72
2021/07/18 02:40:14;;;;;;;4.50;3.83;;;;;;;15.92;100.00;101122.94;5069919;28;20174;-72
2021/07/18 02:42:40;;;;;;;5.43;3.33;;;;;;;15.91;100.00;101127.63;5069680;28;20269;-72
2021/07/18 02:45:10;;;;;;;3.90;3.53;;;;;;;15.92;100.00;101139.47;5069670;28;20179;-72
2021/07/18 02:47:36;;;;;;;4.30;3.90;;;;;;;15.89;100.00;101116.09;5070015;28;20976;-72
2021/07/18 02:50:07;;;;;;;4.00;3.60;;;;;;;15.89;100.00;101118.88;5068793;28;20257;-72
2021/07/18 02:52:32;;;;;;;5.20;3.87;;;;;;;15.89;100.00;101105.09;5069701;28;20336;-72
2021/07/18 02:54:58;;;;;;;4.80;3.17;;;;;;;15.94;100.00;101126.97;5070194;28;20261;-72
2021/07/18 02:57:23;;;;;;;4.07;3.43;;;;;;;15.96;100.00;101112.84;5073486;28;20726;-72
2021/07/18 02:59:49;;;;;;;4.80;4.27;;;;;;;15.96;100.00;101107.34;5073591;28;20167;-72
2021/07/18 03:02:15;;;;;;;8.53;4.40;;;;;;;15.97;100.00;101155.81;5072931;28;20261;-72
2021/07/18 03:04:40;;;;;;;3.67;3.37;;;;;;;15.99;100.00;101156.28;5073444;28;20254;-72
2021/07/18 03:07:05;;;;;;;5.43;4.33;;;;;;;15.99;100.00;101137.78;5073226;28;20236;-72
2021/07/18 03:09:30;;;;;;;4.67;4.00;;;;;;;15.99;100.00;101146.06;5073299;28;20167;-72
2021/07/18 03:11:56;;;;;;;7.87;3.63;;;;;;;16.00;100.00;101144.91;5073015;28;20198;-72
2021/07/18 03:14:21;;;;;;;5.07;4.27;;;;;;;16.00;100.00;101122.06;5073512;28;20493;-72
2021/07/18 03:16:49;;;;;;;3.93;3.53;;;;;;;15.97;100.00;101195.19;5073211;28;20503;-72
2021/07/18 03:19:15;;;;;;;5.17;3.90;;;;;;;15.94;100.00;101306.13;5073204;28;20174;-72
2021/07/18 03:21:41;;;;;;;4.20;3.90;;;;;;;15.92;100.00;101242.25;5072888;28;20174;-72
2021/07/18 03:24:07;;;;;;;4.80;4.40;;;;;;;15.95;100.00;101225.03;5072933;28;20178;-72
2021/07/18 03:26:32;;;;;;;4.10;3.77;;;;;;;15.97;100.00;101158.56;5073187;28;20170;-72
2021/07/18 03:28:58;;;;;;;4.27;3.57;;;;;;;15.97;100.00;101241.25;5073059;28;20194;-72
2021/07/18 03:31:24;;;;;;;5.10;4.70;;;;;;;15.94;100.00;101259.25;5072873;28;20588;-72
2021/07/18 03:33:49;;;;;;;5.93;5.20;;;;;;;15.99;100.00;101186.59;5072885;28;20176;-72
2021/07/18 03:36:14;;;;;;;5.47;4.33;;;;;;;15.99;100.00;101159.03;5072822;28;20600;-72
2021/07/18 03:38:40;;;;;;;6.00;3.97;;;;;;;15.99;100.00;101164.56;5072877;28;20630;-72
2021/07/18 03:41:05;;;;;;;5.07;4.47;;;;;;;15.99;100.00;101162.59;5072635;28;20218;-72
2021/07/18 03:43:31;;;;;;;5.00;4.50;;;;;;;15.96;100.00;101188.06;5072750;28;20217;-72
2021/07/18 03:45:57;;;;;;;4.23;3.83;;;;;;;15.96;100.00;101237.69;5071158;28;20177;-72
2021/07/18 03:48:22;;;;;;;8.00;4.23;;;;;;;15.95;100.00;101215.97;5071719;28;20649;-72
2021/07/18 03:50:49;;;;;;;9.00;4.60;;;;;;;15.93;100.00;101188.75;5070224;28;20584;-72
2021/07/18 03:53:14;;;;;;;4.10;3.70;;;;;;;15.90;100.00;101170.09;5072309;28;20205;-72
2021/07/18 03:55:40;;;;;;;4.53;4.13;;;;;;;15.89;100.00;101160.19;5071122;28;20171;-72
2021/07/18 03:58:05;;;;;;;4.80;4.40;;;;;;;15.88;100.00;101447.97;5072571;28;20186;-72
2021/07/18 04:00:31;;;;;;;5.63;3.83;;;;;;;15.89;100.00;101145.63;5072460;28;20553;-75
2021/07/18 04:02:56;;;;;;;4.43;4.03;;;;;;;15.90;100.00;101148.03;5072453;28;20194;-72
2021/07/18 04:05:21;;;;;;;4.13;3.83;;;;;;;15.89;100.00;101162.97;5072478;28;20174;-72
2021/07/18 04:07:46;;;;;;;9.13;4.57;;;;;;;15.93;100.00;101141.88;5071555;28;20179;-72
2021/07/18 04:10:12;;;;;;;5.53;4.43;;;;;;;15.94;100.00;101148.22;5072207;28;20265;-72
2021/07/18 04:12:37;;;;;;;4.30;3.93;;;;;;;15.97;100.00;101148.34;5072120;28;20357;-72
2021/07/18 04:15:03;;;;;;;3.67;3.37;;;;;;;16.00;100.00;101144.91;5072429;28;20175;-72
2021/07/18 04:17:29;;;;;;;5.10;4.60;;;;;;;16.02;100.00;101155.63;5072209;28;20175;-72
2021/07/18 04:19:54;;;;;;;6.63;4.37;;;;;;;16.03;100.00;101143.44;5072053;28;20190;-73
2021/07/18 04:22:20;;;;;;;7.37;5.03;;;;;;;16.04;100.00;101151.38;5072012;28;20273;-72
2021/07/18 04:24:45;;;;;;;5.03;4.57;;;;;;;16.12;100.00;101146.19;5071842;28;20213;-72
2021/07/18 04:27:11;;;;;;;4.30;3.90;;;;;;;16.15;100.00;101148.25;5071812;28;20630;-72
2021/07/18 04:29:36;;;;;;;4.20;3.80;;;;;;;16.16;100.00;101147.94;5070693;28;20184;-72
2021/07/18 04:32:02;;;;;;;7.00;4.43;;;;;;;16.17;100.00;101170.78;5071605;28;20221;-72
2021/07/18 04:34:27;;;;;;;7.67;4.37;;;;;;;16.17;100.00;101171.59;5071925;28;20170;-72
2021/07/18 04:36:52;;;;;;;6.40;4.70;;;;;;;16.19;100.00;101165.75;5071679;28;20178;-72
2021/07/18 04:39:18;;;;;;;4.53;3.60;;;;;;;16.21;100.00;101174.53;5071765;28;20686;-72
2021/07/18 04:41:43;;;;;;;5.70;3.63;;;;;;;16.21;100.00;101175.34;5071722;28;20193;-73
2021/07/18 04:44:08;;;;;;;8.27;4.53;;;;;;;16.22;100.00;101179.72;5071643;28;20634;-72
2021/07/18 04:46:34;;;;;;;5.00;4.23;;;;;;;16.26;100.00;101175.13;5071646;28;20174;-73
2021/07/18 04:48:59;;;;;;;4.97;4.13;;;;;;;16.28;100.00;101172.03;5071492;28;20228;-73
2021/07/18 04:51:24;;;;;;;3.70;3.40;;;;;;;16.26;100.00;101155.03;5070921;28;20390;-73
2021/07/18 04:53:50;;;;;;;5.23;4.03;;;;;;;16.32;100.00;101159.19;5071406;28;20857;-73
2021/07/18 04:56:16;;;;;;;3.90;3.50;;;;;;;16.35;100.00;101162.13;5071333;28;20175;-73
2021/07/18 04:58:41;;;;;;;6.57;4.20;;;;;;;16.35;100.00;101166.84;5070062;28;20598;-73
2021/07/18 05:01:07;;;;;;;4.57;3.93;;;;;;;16.35;100.00;101180.63;5071056;28;20497;-73
2021/07/18 05:03:33;;;;;;;5.57;4.10;;;;;;;16.41;100.00;101172.97;5071251;28;20557;-73
2021/07/18 05:05:59;;;;;;;7.20;4.90;;;;;;;16.44;100.00;101169.53;5071146;28;20182;-73
2021/07/18 05:08:24;;;;;;;5.93;4.87;;;;;;;16.42;100.00;101164.34;5071057;28;20185;-73
2021/07/18 05:10:50;;;;;;;8.27;4.53;;;;;;;16.45;100.00;101155.41;5070923;28;20171;-73
2021/07/18 05:13:15;;;;;;;5.20;4.50;;;;;;;16.51;100.00;101148.56;5071055;28;20201;-73
2021/07/18 05:15:40;;;;;;;4.07;3.77;;;;;;;16.53;100.00;101151.78;5069377;28;20236;-73
2021/07/18 05:18:13;;;;;;;8.17;4.90;;;;;;;16.58;100.00;101159.88;5070590;28;20797;-73
2021/07/18 05:20:40;;;;;;;4.27;3.83;;;;;;;16.54;100.00;101155.38;5070843;28;20622;-72
2021/07/18 05:23:06;;;;;;;6.73;4.40;;;;;;;16.56;100.00;101161.34;5070936;28;20236;-73
2021/07/18 05:25:31;;;;;;;6.20;3.47;;;;;;;16.56;100.00;101161.34;5070940;28;20554;-73
2021/07/18 05:27:57;;;;;;;8.27;4.47;;;;;;;16.59;100.00;101153.19;5070884;28;20174;-73
2021/07/18 05:30:22;;;;;;;4.67;4.27;;;;;;;16.65;100.00;101148.31;5070672;28;20174;-73
2021/07/18 05:32:47;;;;;;;5.13;4.73;;;;;;;16.63;100.00;101148.63;5070686;28;20201;-73
2021/07/18 05:35:13;;;;;;;6.27;4.33;;;;;;;16.67;100.00;101157.09;5070676;28;20213;-72
2021/07/18 05:37:38;;;;;;;5.20;4.70;;;;;;;16.68;100.00;101152.38;5070674;28;20633;-73
2021/07/18 05:40:06;;;;;;;5.23;4.73;;;;;;;16.72;100.00;101164.34;5070713;28;20384;-73
2021/07/18 05:42:31;;;;;;;4.47;4.07;;;;;;;16.78;100.00;101177.66;5070555;28;20203;-73
2021/07/18 05:44:56;;;;;;;6.70;4.33;;;;;;;16.76;100.00;101162.53;5070708;28;20670;-73
2021/07/18 05:47:22;;;;;;;4.70;4.30;;;;;;;16.79;100.00;101176.50;5070569;28;20179;-73
2021/07/18 05:49:47;;;;;;;3.80;3.50;;;;;;;16.79;100.00;101178.44;5070617;28;20217;-73
2021/07/18 05:52:12;;;;;;;7.10;4.60;;;;;;;16.79;100.00;101178.44;5070312;28;20212;-73
2021/07/18 05:54:38;;;;;;;5.07;3.53;;;;;;;16.78;100.00;101172.13;5070503;28;20178;-72
2021/07/18 05:57:04;;;;;;;12.10;4.20;;;;;;;16.80;100.00;101178.09;5070514;28;20171;-72
2021/07/18 05:59:30;;;;;;;6.37;4.60;;;;;;;16.84;100.00;101169.97;5071494;28;20174;-72
2021/07/18 06:01:55;;;;;;;5.33;4.80;;;;;;;16.79;100.00;101159.94;5080214;28;20211;-72
2021/07/18 06:04:20;;;;;;;5.47;4.97;;;;;;;16.66;100.00;101188.56;5072064;28;20633;-72
2021/07/18 06:06:46;;;;;;;5.57;5.03;;;;;;;16.88;100.00;101173.66;5070817;28;20308;-72
2021/07/18 06:09:11;;;;;;;4.27;3.93;;;;;;;16.95;100.00;101180.28;5070851;28;20319;-72
2021/07/18 06:11:36;;;;;;;4.33;3.93;;;;;;;17.02;100.00;101189.97;5070850;28;20459;-73
2021/07/18 06:14:02;;;;;;;5.40;4.90;;;;;;;17.05;100.00;101178.22;5070697;28;20529;-74
2021/07/18 06:16:28;;;;;;;4.80;4.40;;;;;;;17.06;100.00;101174.31;5070409;28;20221;-73
2021/07/18 06:18:53;;;;;;;4.67;4.10;;;;;;;17.07;100.00;101182.31;5069170;28;20179;-74
2021/07/18 06:21:19;;;;;;;4.57;3.80;;;;;;;17.04;100.00;101177.44;5070288;28;20558;-74
2021/07/18 06:23:45;;;;;;;4.33;3.93;;;;;;;17.03;100.00;101186.84;5070344;28;20183;-74
2021/07/18 06:26:11;;;;;;;3.83;3.53;;;;;;;17.00;100.00;101164.63;5070441;28;20182;-73
2021/07/18 06:28:37;;;;;;;5.40;4.90;;;;;;;17.06;100.00;101177.91;5070252;28;20185;-73
2021/07/18 06:31:03;;;;;;;4.90;4.50;;;;;;;17.15;100.00;101181.41;5072752;28;20189;-73
2021/07/18 06:33:28;;;;;;;5.33;4.83;;;;;;;17.20;100.00;101192.22;5073973;28;20210;-73
2021/07/18 06:35:54;;;;;;;4.30;3.90;;;;;;;17.27;100.00;101185.38;5074156;28;20174;-74
2021/07/18 06:38:19;;;;;;;5.40;4.77;;;;;;;17.34;100.00;101174.56;5074049;28;20637;-73
2021/07/18 06:40:45;;;;;;;4.57;4.10;;;;;;;17.36;100.00;101173.13;5073855;28;20209;-73
2021/07/18 06:43:10;;;;;;;5.23;4.70;;;;;;;17.36;100.00;101186.91;5073612;28;20258;-73
2021/07/18 06:45:36;;;;;;;6.47;4.90;;;;;;;17.45;100.00;101189.59;5073541;28;20241;-73
2021/07/18 06:48:02;;;;;;;7.37;5.17;;;;;;;17.61;100.00;101187.00;5073602;28;20167;-74
2021/07/18 06:50:27;;;;;;;7.97;5.00;;;;;;;17.78;100.00;101187.66;5073572;28;20557;-73
2021/07/18 06:52:53;;;;;;;5.47;4.77;;;;;;;17.70;98.74;101196.03;5073138;28;20553;-74
2021/07/18 06:55:18;;;;;;;4.87;4.47;;;;;;;17.78;99.60;101218.06;5073598;28;20179;-73
2021/07/18 06:57:51;;;;;;;5.13;4.63;;;;;;;17.80;98.88;101213.00;5073736;28;20175;-73
2021/07/18 07:00:19;;;;;;;5.03;3.83;;;;;;;17.89;98.64;101203.81;5073524;28;20582;-74
2021/07/18 07:02:44;;;;;;;5.17;4.27;;;;;;;17.81;97.32;101206.34;5073093;28;20713;-73
2021/07/18 07:05:11;;;;;;;6.53;5.50;;;;;;;17.89;96.80;101209.34;5073254;28;20269;-73
2021/07/18 07:07:36;;;;;;;7.83;4.47;;;;;;;17.91;96.54;101207.03;5073239;28;20191;-73
2021/07/18 07:10:02;;;;;;;6.03;4.70;;;;;;;17.79;96.74;101202.28;5073336;28;20181;-73
2021/07/18 07:12:27;;;;;;;6.33;5.50;;;;;;;17.74;96.87;101188.69;5072991;28;20198;-78
2021/07/18 07:14:52;;;;;;;4.27;3.87;;;;;;;17.68;97.26;101196.38;5070385;28;20182;-76
2021/07/18 07:17:19;;;;;;;4.53;4.13;;;;;;;17.74;98.39;101195.00;5072933;28;20190;-75
2021/07/18 07:19:44;;;;;;;5.30;4.80;;;;;;;17.88;98.38;101186.41;5070343;28;20175;-75
2021/07/18 07:22:11;;;;;;;5.17;4.63;;;;;;;18.01;98.11;101188.03;5072962;28;20633;-75
2021/07/18 07:24:36;;;;;;;3.77;3.17;;;;;;;18.16;97.38;101183.00;5072889;28;20186;-74
2021/07/18 07:27:01;;;;;;;5.07;4.57;;;;;;;18.17;96.89;101179.88;5073071;28;20693;-73
2021/07/18 07:29:27;;;;;;;4.17;3.63;;;;;;;18.05;95.75;101185.41;5073136;28;20221;-73
2021/07/18 07:31:52;;;;;;;4.93;3.87;;;;;;;18.02;95.87;101183.31;5071667;28;20467;-73
2021/07/18 07:34:17;;;;;;;5.50;3.63;;;;;;;17.97;96.31;101189.09;5072851;28;20182;-73
2021/07/18 07:36:43;;;;;;;6.13;3.80;;;;;;;17.99;96.00;101184.81;5072827;28;20593;-73
2021/07/18 07:39:08;;;;;;;5.93;4.27;;;;;;;18.05;95.22;101190.94;5072789;28;20615;-73
2021/07/18 07:41:34;;;;;;;4.60;3.50;;;;;;;18.22;96.48;101187.13;5072164;28;20167;-73
2021/07/18 07:44:00;;;;;;;2.77;2.57;;;;;;;18.29;95.29;101188.19;5072226;28;20240;-73
2021/07/18 07:46:26;;;;;;;3.10;2.80;;;;;;;18.22;94.20;101185.19;5072595;28;20178;-73
2021/07/18 07:48:51;;;;;;;3.73;3.37;;;;;;;18.22;94.34;101190.72;5072588;28;20182;-72
2021/07/18 07:51:17;;;;;;;3.63;3.30;;;;;;;18.10;94.16;101185.19;5072433;28;20179;-74
2021/07/18 07:53:42;;;;;;;4.53;3.70;;;;;;;18.06;94.25;101185.03;5072498;28;20213;-73
2021/07/18 07:56:07;;;;;;;3.73;3.27;;;;;;;18.10;95.38;101174.13;5072530;28;20181;-73
2021/07/18 07:58:34;;;;;;;4.97;3.47;;;;;;;18.29;94.87;101168.81;5072365;28;20178;-74
2021/07/18 08:01:00;;;;;;;3.97;3.57;;;;;;;18.19;93.76;101169.28;5072161;28;20257;-74
2021/07/18 08:03:25;;;;;;;4.73;3.60;;;;;;;18.48;94.00;101170.19;5072132;28;20214;-74
2021/07/18 08:05:51;;;;;;;4.10;3.40;;;;;;;18.62;92.34;101168.69;5072149;28;20265;-74
2021/07/18 08:08:17;;;;;;;4.73;4.13;;;;;;;18.68;91.74;101260.66;5070992;28;20178;-74
2021/07/18 08:10:42;;;;;;;4.17;3.70;;;;;;;18.72;91.59;101264.34;5071919;28;20187;-74
2021/07/18 08:13:08;;;;;;;4.40;3.67;;;;;;;18.90;91.23;101273.19;5072083;28;20563;-74
2021/07/18 08:15:34;;;;;;;4.10;3.40;;;;;;;19.07;91.05;101231.41;5072749;28;20233;-74
2021/07/18 08:17:59;;;;;;;4.07;3.67;;;;;;;19.10;90.85;101166.22;5072028;28;20170;-75
2021/07/18 08:20:26;;;;;;;3.93;3.50;;;;;;;18.93;90.82;101158.97;5071822;28;20675;-74
2021/07/18 08:22:54;;;;;;;3.43;3.13;;;;;;;18.87;90.42;101169.50;5071719;28;20618;-74
2021/07/18 08:25:21;;;;;;;3.30;2.73;;;;;;;18.86;91.49;101167.88;5071776;28;20268;-74
2021/07/18 08:27:47;;;;;;;3.83;3.13;;;;;;;18.95;91.13;101160.25;5071800;28;20261;-74
2021/07/18 08:30:15;;;;;;;2.57;2.37;;;;;;;19.02;90.88;101154.91;5071806;28;20695;-74
2021/07/18 08:32:41;;;;;;;3.13;2.83;;;;;;;19.11;89.78;101162.28;5071237;28;20211;-74
2021/07/18 08:35:07;;;;;;;3.10;2.80;;;;;;;19.20;88.85;101174.81;5071603;28;20174;-74
2021/07/18 08:37:33;;;;;;;3.60;2.57;;;;;;;19.21;89.37;101172.84;5071488;28;20174;-74
2021/07/18 08:40:00;;;;;;;3.57;2.90;;;;;;;19.53;89.65;101174.56;5071545;28;20170;-75
2021/07/18 08:42:25;;;;;;;2.43;2.23;;;;;;;19.58;87.54;101185.41;5070811;28;20177;-74
2021/07/18 08:44:51;;;;;;;2.47;2.27;;;;;;;19.47;87.10;101225.06;5071462;28;20171;-74
2021/07/18 08:47:20;;;;;;;3.57;2.80;;;;;;;19.42;86.60;101222.53;5071315;28;20540;-74
2021/07/18 08:49:46;;;;;;;2.73;2.53;;;;;;;19.53;87.63;101213.38;5068987;28;20251;-75
2021/07/18 08:52:11;;;;;;;2.87;2.60;;;;;;;19.55;87.27;101193.66;5070579;28;20245;-74
2021/07/18 08:54:37;;;;;;;3.13;2.83;;;;;;;19.83;88.43;101215.81;5067380;28;20578;-75
2021/07/18 08:57:03;;;;;;;2.70;2.50;;;;;;;20.05;86.37;101278.19;5070342;28;20182;-74
2021/07/18 08:59:29;;;;;;;3.70;2.43;;;;;;;19.93;85.16;101218.03;5071282;28;20257;-74
2021/07/18 09:01:55;;;;;;;2.57;2.40;;;;;;;19.91;86.31;101184.31;5069453;28;20187;-74
2021/07/18 09:04:21;;;;;;;2.70;2.50;;;;;;;20.09;86.11;101180.00;5071047;28;20220;-73
2021/07/18 09:06:49;;;;;;;2.77;2.57;;;;;;;20.15;84.20;101191.66;5071150;28;20182;-74
2021/07/18 09:09:17;;;;;;;2.83;2.63;;;;;;;20.31;85.27;101197.22;5069503;28;20626;-74
2021/07/18 09:11:44;;;;;;;2.53;2.33;;;;;;;20.27;83.22;101224.88;5070703;28;20183;-74
2021/07/18 09:14:11;;;;;;;2.70;2.50;;;;;;;20.26;84.65;101239.13;5069777;28;20178;-73
2021/07/18 09:16:39;;;;;;;3.23;3.03;;;;;;;20.44;84.18;101213.44;5071233;28;20182;-73
2021/07/18 09:19:29;;;;;;;2.40;2.10;;;;;;;20.43;83.19;101195.16;5070883;28;20206;-72
2021/07/18 09:21:57;;;;;;;2.70;2.50;;;;;;;20.54;84.55;101156.53;5071030;28;20309;-73
2021/07/18 09:24:24;;;;;;;2.43;2.30;;;;;;;20.69;83.19;101191.81;5066161;28;20255;-73
2021/07/18 09:27:18;;;;;;;2.90;2.70;;;;;;;20.84;84.33;101184.63;5070733;28;20187;-73
2021/07/18 09:29:45;;;;;;;3.17;2.93;;;;;;;21.06;83.31;101194.22;5070898;28;20200;-73
2021/07/18 09:32:13;;;;;;;2.83;2.57;;;;;;;21.01;80.57;101152.81;5070637;28;20217;-73
2021/07/18 09:34:40;;;;;;;2.40;2.20;;;;;;;20.79;81.38;101146.78;5070800;28;20185;-73
2021/07/18 09:37:08;;;;;;;2.93;2.70;;;;;;;20.66;82.09;101150.88;5070813;28;20178;-72
2021/07/18 09:39:34;;;;;;;2.63;2.43;;;;;;;20.81;83.47;101149.22;5069478;28;20205;-73
2021/07/18 09:41:59;;;;;;;2.20;2.00;;;;;;;20.90;81.90;101165.69;5070617;28;20622;-72
2021/07/18 09:44:25;;;;;;;2.93;2.73;;;;;;;20.91;81.97;101170.06;5070492;28;20534;-72
2021/07/18 09:46:50;;;;;;;2.60;2.40;;;;;;;21.05;82.23;101193.41;5070760;28;20175;-72
2021/07/18 09:49:33;;;;;;;2.87;2.67;;;;;;;21.21;80.42;101175.84;5070485;28;20182;-72
2021/07/18 09:52:17;;;;;;;2.77;2.57;;;;;;;21.33;80.58;101156.28;5067143;28;20211;-73
2021/07/18 09:54:43;;;;;;;2.00;1.90;;;;;;;21.40;79.66;101145.28;5066938;28;20170;-73
2021/07/18 09:57:12;;;;;;;2.63;2.43;;;;;;;21.43;80.55;101200.19;5070633;28;20179;-74
2021/07/18 09:59:38;;;;;;;3.07;2.87;;;;;;;21.47;78.50;101152.97;5070647;28;20178;-74
2021/07/18 10:02:05;;;;;;;2.80;2.60;;;;;;;21.47;77.19;101139.06;5070368;28;20567;-74
2021/07/18 10:04:38;;;;;;;2.60;2.40;;;;;;;21.66;79.05;101183.53;5068043;28;20216;-74
2021/07/18 10:07:07;;;;;;;2.37;2.17;;;;;;;21.72;77.90;101201.53;5074540;28;20178;-74
2021/07/18 10:09:34;;;;;;;2.57;2.37;;;;;;;21.53;75.63;101201.56;5074322;28;20174;-74
2021/07/18 10:12:00;;;;;;;4.33;2.10;;;;;;;21.67;78.05;101124.75;5074386;28;20194;-74
2021/07/18 10:14:26;;;;;;;2.20;2.10;;;;;;;21.52;76.69;101130.41;5074614;28;20179;-74
2021/07/18 10:16:53;;;;;;;2.07;1.87;;;;;;;21.73;77.55;101122.47;5070734;28;20214;-74
2021/07/18 10:19:20;;;;;;;1.77;1.67;;;;;;;21.91;78.11;101120.81;5074247;28;20178;-74
2021/07/18 10:21:45;;;;;;;2.53;2.33;;;;;;;22.09;77.65;101114.75;5074294;28;20541;-74
2021/07/18 10:24:13;;;;;;;1.97;1.87;;;;;;;22.13;75.03;101104.47;5074201;28;20174;-74
2021/07/18 10:26:39;;;;;;;2.63;2.30;;;;;;;22.12;74.81;101117.59;5072948;28;20182;-74
2021/07/18 10:29:06;;;;;;;2.20;2.10;;;;;;;22.00;76.01;101112.22;5074296;28;20533;-74
2021/07/18 10:31:38;;;;;;;1.90;1.80;;;;;;;22.14;73.00;101114.44;5074283;28;20181;-74
2021/07/18 10:34:06;;;;;;;1.87;1.77;;;;;;;22.14;74.21;101103.31;5073795;28;20209;-74
2021/07/18 10:36:33;;;;;;;2.57;1.73;;;;;;;22.23;73.67;101096.28;5070221;28;20190;-75
2021/07/18 10:38:58;;;;;;;2.20;2.00;;;;;;;22.36;72.43;101099.66;5073552;28;20202;-74
2021/07/18 10:41:43;;;;;;;2.53;1.57;;;;;;;22.37;74.15;101101.25;5072151;28;20209;-74
2021/07/18 10:44:12;;;;;;;2.47;2.07;;;;;;;22.34;73.71;101101.22;5073558;28;20254;-74
2021/07/18 10:46:40;;;;;;;2.60;2.37;;;;;;;22.39;74.65;101096.13;5073769;28;20224;-74
2021/07/18 10:49:05;;;;;;;2.10;2.00;;;;;;;22.39;72.21;101120.38;5073651;28;20703;-73
2021/07/18 10:51:36;;;;;;;2.03;1.90;;;;;;;22.60;73.91;101108.75;5073813;28;20174;-73
2021/07/18 10:54:23;;;;;;;3.40;1.87;;;;;;;22.69;72.12;101107.28;5073595;28;20179;-74
2021/07/18 10:56:50;;;;;;;1.83;1.73;;;;;;;22.76;72.01;101099.03;5073633;28;20221;-74
2021/07/18 10:59:43;;;;;;;2.10;2.00;;;;;;;22.70;71.66;101096.94;5073597;28;20257;-74
2021/07/18 11:02:13;;;;;;;1.70;1.60;;;;;;;22.93;70.96;101075.38;5073321;28;20216;-74
2021/07/18 11:04:52;;;;;;;1.60;1.50;;;;;;;22.88;69.38;101103.59;5073508;28;20174;-74
2021/07/18 11:07:20;;;;;;;1.83;1.73;;;;;;;23.12;70.19;101105.06;5073468;28;20164;-74
2021/07/18 11:09:50;;;;;;;1.80;1.70;;;;;;;23.02;68.46;101133.63;5073358;28;20175;-75
2021/07/18 11:12:30;;;;;;;2.17;1.97;;;;;;;23.11;67.92;101120.97;5073132;28;20239;-74
2021/07/18 11:15:31;;;;;;;1.70;1.60;;;;;;;23.11;68.14;101109.84;5071871;28;20174;-75
2021/07/18 11:18:08;;;;;;;2.20;2.00;;;;;;;23.07;68.39;101111.78;5073332;28;20555;-74